createdAt,value
2022-11-24T06:16:13.023Z,19.91
2022-11-24T06:19:07.899Z,18.20
2022-11-24T06:21:55.894Z,15.63
2022-11-24T06:24:30.127Z,13.52
2022-11-24T06:27:17.952Z,11.72
2022-11-24T06:29:53.104Z,10.17
2022-11-24T06:32:43.739Z,8.88
2022-11-24T06:35:29.947Z,7.70
2022-11-24T06:38:24.949Z,6.71
2022-11-24T06:41:14.948Z,5.86
2022-11-24T06:43:50.360Z,5.20
2022-11-24T06:46:38.936Z,4.61
2022-11-24T06:49:14.291Z,4.18
2022-11-24T06:52:01.930Z,5.81
2022-11-24T06:54:37.297Z,8.34
2022-11-24T06:57:33.500Z,9.74
2022-11-24T07:00:15.067Z,10.53
2022-11-24T07:03:03.975Z,10.62
2022-11-24T07:05:39.501Z,9.09
2022-11-24T07:08:26.927Z,7.52
2022-11-24T07:11:23.951Z,6.39
2022-11-24T07:14:04.928Z,5.51
2022-11-24T07:16:46.097Z,4.85
2022-11-24T07:19:26.891Z,4.36
2022-11-24T07:22:08.191Z,3.91
2022-11-24T07:24:48.935Z,3.57
2022-11-24T07:27:36.876Z,3.24
2022-11-24T07:30:11.621Z,3.90
2022-11-24T07:33:00.013Z,7.11
2022-11-24T07:35:34.369Z,9.19
2022-11-24T07:38:21.911Z,9.82
2022-11-24T07:41:03.362Z,8.33
2022-11-24T07:43:51.953Z,6.75
2022-11-24T07:46:30.395Z,5.73
2022-11-24T07:49:18.936Z,4.99
2022-11-24T07:51:53.359Z,4.61
2022-11-24T07:54:40.937Z,6.66
2022-11-24T07:57:21.926Z,8.97
2022-11-24T08:00:03.212Z,10.32
2022-11-24T08:02:44.961Z,10.57
2022-11-24T08:05:27.066Z,9.04
2022-11-24T08:08:07.943Z,7.74
2022-11-24T08:10:55.876Z,6.65
2022-11-24T08:13:52.519Z,5.84
2022-11-24T08:16:39.950Z,5.20
2022-11-24T08:19:22.050Z,4.75
2022-11-24T08:22:16.936Z,5.37
2022-11-24T08:25:12.037Z,8.63
2022-11-24T08:28:00.228Z,9.72
2022-11-24T08:30:43.360Z,8.28
2022-11-24T08:33:30.933Z,6.96
2022-11-24T08:36:20.931Z,6.02
2022-11-24T08:39:08.900Z,5.35
2022-11-24T08:41:49.921Z,4.86
2022-11-24T08:44:44.909Z,4.41
2022-11-24T08:47:32.936Z,4.94
2022-11-24T08:50:08.104Z,7.96
2022-11-24T08:52:55.939Z,9.92
2022-11-24T08:55:37.935Z,10.91
2022-11-24T08:58:19.396Z,12.42
2022-11-24T09:01:06.989Z,13.96
2022-11-24T09:03:49.761Z,15.42
2022-11-24T09:06:40.907Z,16.82
2022-11-24T09:09:15.415Z,17.64
2022-11-24T09:12:02.900Z,17.24
2022-11-24T09:14:50.911Z,16.85
2022-11-24T09:17:39.899Z,16.70
2022-11-24T09:20:21.199Z,16.71
2022-11-24T09:23:08.912Z,16.80
2022-11-24T09:25:44.079Z,16.92
2022-11-24T09:28:31.906Z,17.06
2022-11-24T09:31:13.096Z,17.22
2022-11-24T09:34:01.909Z,17.38
2022-11-24T09:36:37.224Z,17.55
2022-11-24T09:39:25.015Z,17.73
2022-11-24T09:42:12.133Z,17.89
2022-11-24T09:46:03.328Z,18.05
2022-11-24T09:48:52.905Z,18.23
2022-11-24T09:51:29.685Z,18.36
2022-11-24T09:54:30.953Z,18.49
2022-11-24T09:57:07.315Z,18.59
2022-11-24T09:59:55.915Z,18.68
2022-11-24T10:02:30.386Z,18.74
2022-11-24T10:05:18.939Z,18.00
2022-11-24T10:08:08.906Z,16.07
2022-11-24T10:11:03.047Z,13.95
2022-11-24T10:13:43.927Z,12.20
2022-11-24T10:17:00.906Z,10.70
2022-11-24T10:20:03.928Z,9.28
2022-11-24T10:23:10.966Z,9.37
2022-11-24T10:26:10.902Z,8.75
2022-11-24T10:29:07.889Z,7.74
2022-11-24T10:31:59.905Z,6.96
2022-11-24T10:34:42.158Z,6.39
2022-11-24T10:37:40.911Z,5.89
2022-11-24T10:40:55.463Z,5.46
2022-11-24T10:43:33.882Z,5.06
2022-11-24T10:46:39.145Z,5.85
2022-11-24T10:49:40.019Z,9.27
2022-11-24T10:52:22.041Z,10.57
2022-11-24T10:55:11.887Z,9.43
2022-11-24T10:57:47.108Z,7.96
2022-11-24T11:00:39.892Z,6.91
2022-11-24T11:03:32.913Z,6.17
2022-11-24T11:06:31.875Z,5.56
2022-11-24T11:09:13.099Z,6.67
2022-11-24T11:11:59.143Z,9.23
2022-11-24T11:15:04.960Z,10.85
2022-11-24T11:17:52.916Z,11.16
2022-11-24T11:20:41.060Z,9.61
2022-11-24T11:23:37.902Z,8.04
2022-11-24T11:26:38.048Z,7.01
2022-11-24T11:35:39.904Z,12.71
2022-11-24T11:38:21.036Z,12.58
2022-11-24T11:41:01.891Z,10.72
2022-11-24T11:43:46.203Z,9.24
2022-11-24T11:46:27.958Z,7.96
2022-11-24T11:49:08.862Z,7.04
2022-11-24T11:52:12.720Z,6.30
2022-11-24T11:55:08.608Z,5.62
2022-11-24T11:58:15.221Z,5.07
2022-11-24T12:01:32.232Z,5.32
2022-11-24T12:04:44.910Z,8.83
2022-11-24T12:07:43.837Z,9.95
2022-11-24T12:10:38.881Z,8.37
2022-11-24T12:13:28.593Z,6.99
2022-11-24T12:16:45.907Z,5.95
2022-11-24T12:19:29.248Z,5.12
2022-11-24T12:22:44.881Z,4.76
2022-11-24T12:25:26.843Z,7.15
2022-11-24T12:28:47.889Z,8.89
2022-11-24T12:31:36.081Z,7.67
2022-11-24T12:34:35.905Z,6.65
2022-11-24T12:37:39.877Z,9.15
2022-11-24T12:40:34.861Z,15.15
2022-11-24T12:43:33.871Z,16.56
2022-11-24T12:46:32.271Z,16.61
2022-11-24T12:49:46.867Z,16.91
2022-11-24T12:52:32.043Z,17.47
2022-11-24T12:55:20.884Z,17.95
2022-11-24T12:58:26.873Z,18.26
2022-11-24T13:01:16.641Z,18.24
2022-11-24T13:04:13.879Z,17.77
2022-11-24T13:07:01.834Z,17.14
2022-11-24T13:09:44.023Z,16.84
2022-11-24T13:12:24.871Z,16.69
2022-11-24T13:15:45.793Z,16.75
2022-11-24T13:19:02.969Z,15.92
2022-11-24T13:21:53.024Z,15.61
2022-11-24T13:24:39.103Z,15.84
2022-11-24T13:27:20.037Z,16.01
2022-11-24T13:30:00.876Z,16.10
2022-11-24T13:32:48.969Z,16.36
2022-11-24T13:35:23.490Z,16.79
2022-11-24T13:38:11.937Z,16.87
2022-11-24T13:41:12.958Z,17.08
2022-11-24T13:44:28.978Z,17.12
2022-11-24T13:47:11.969Z,16.92
2022-11-24T13:49:59.862Z,16.43
2022-11-24T13:52:40.623Z,16.04
2022-11-24T13:55:34.881Z,15.48
2022-11-24T13:58:09.249Z,15.25
2022-11-24T14:01:17.164Z,14.85
2022-11-24T14:04:32.296Z,14.58
2022-11-24T14:07:20.186Z,14.71
2022-11-24T14:10:01.874Z,14.56
2022-11-24T14:12:44.039Z,14.70
2022-11-24T14:15:31.862Z,15.27
2022-11-24T14:18:29.444Z,15.97
2022-11-24T17:10:14.375Z,19.47
2022-11-24T17:13:06.856Z,16.98
2022-11-24T17:15:48.381Z,14.25
2022-11-24T17:18:38.764Z,11.76
2022-11-24T17:21:21.848Z,9.83
2022-11-24T17:24:24.967Z,8.11
2022-11-24T17:27:16.580Z,6.59
2022-11-24T17:29:53.019Z,5.48
2022-11-24T17:32:41.754Z,4.57
2022-11-24T17:35:24.853Z,3.81
2022-11-24T17:38:22.753Z,3.13
2022-11-24T17:41:16.494Z,3.09
2022-11-24T17:43:59.336Z,5.88
2022-11-24T17:46:54.047Z,7.27
2022-11-24T17:49:31.991Z,5.93
2022-11-24T17:52:22.023Z,4.54
2022-11-24T17:54:57.835Z,3.57
2022-11-24T17:57:46.759Z,2.86
2022-11-24T18:00:23.302Z,3.16
2022-11-24T18:03:12.897Z,5.88
2022-11-24T18:05:54.938Z,5.98
2022-11-24T18:08:47.757Z,4.54
2022-11-24T18:11:39.857Z,3.48
2022-11-24T18:14:36.208Z,2.82
2022-11-24T18:17:28.981Z,4.93
2022-11-24T18:20:18.435Z,6.55
2022-11-24T18:23:09.821Z,5.92
2022-11-24T18:25:45.006Z,8.70
2022-11-24T18:28:34.765Z,9.91
2022-11-24T18:31:13.336Z,8.41
2022-11-24T18:34:00.734Z,6.68
2022-11-24T18:36:35.949Z,5.36
